createdAt,value
2023-04-27T00:00:54.967Z,97250.03
2023-04-27T00:03:57.333Z,97247.97
2023-04-27T00:06:58.929Z,97247.38
2023-04-27T00:10:00.546Z,97251.41
2023-04-27T00:13:02.372Z,97240.88
2023-04-27T00:16:04.106Z,97243.56
2023-04-27T00:19:05.716Z,97238.66
2023-04-27T00:22:08.251Z,97234.28
2023-04-27T00:25:09.906Z,97241.06
2023-04-27T00:28:11.486Z,97238.81
2023-04-27T00:31:13.031Z,97232.28
2023-04-27T00:34:14.604Z,97234.06
2023-04-27T00:37:16.403Z,97235.28
2023-04-27T00:40:17.987Z,97227.28
2023-04-27T00:43:19.558Z,97231.41
2023-04-27T00:46:21.506Z,97228.13
2023-04-27T00:49:23.684Z,97233.47
2023-04-27T00:52:26.003Z,97225.56
2023-04-27T00:55:27.587Z,97220.34
2023-04-27T00:58:30.256Z,97223.03
2023-04-27T01:01:33.999Z,97212.94
2023-04-27T01:04:36.941Z,97230.38
2023-04-27T01:07:39.864Z,97229.28
2023-04-27T01:10:41.655Z,97226.59
2023-04-27T01:13:45.078Z,97237.66
2023-04-27T01:16:46.630Z,97229.06
2023-04-27T01:19:48.221Z,97236.03
2023-04-27T01:22:51.573Z,97232.53
2023-04-27T01:25:53.047Z,97237.50
2023-04-27T01:28:55.562Z,97241.00
2023-04-27T01:31:57.060Z,97245.75
2023-04-27T01:34:58.553Z,97242.84
2023-04-27T01:38:01.355Z,97243.28
2023-04-27T01:41:07.173Z,97238.19
2023-04-27T01:44:09.193Z,97237.56
2023-04-27T01:47:10.798Z,97230.78
2023-04-27T01:50:12.323Z,97234.69
2023-04-27T01:53:14.246Z,97229.72
2023-04-27T01:56:15.953Z,97229.66
2023-04-27T01:59:17.453Z,97231.72
2023-04-27T02:02:19.008Z,97232.22
2023-04-27T02:05:20.667Z,97224.44
2023-04-27T02:08:22.658Z,97233.03
2023-04-27T02:11:24.185Z,97227.53
2023-04-27T02:14:25.664Z,97218.53
2023-04-27T02:17:27.248Z,97222.00
2023-04-27T02:20:30.527Z,97234.72
2023-04-27T02:23:31.952Z,97233.84
2023-04-27T02:26:33.384Z,97233.47
2023-04-27T02:29:38.755Z,97227.22
2023-04-27T02:32:41.447Z,97225.31
2023-04-27T02:35:43.013Z,97237.09
2023-04-27T02:38:44.554Z,97220.91
2023-04-27T02:41:46.022Z,97229.72
2023-04-27T02:44:47.998Z,97227.81
2023-04-27T02:47:50.907Z,97226.56
2023-04-27T02:50:52.594Z,97231.06
2023-04-27T02:53:54.350Z,97226.56
2023-04-27T02:56:55.830Z,97233.53
2023-04-27T02:59:57.301Z,97227.00
2023-04-27T03:02:58.968Z,97237.63
2023-04-27T03:06:00.631Z,97232.94
2023-04-27T03:09:05.396Z,97240.78
2023-04-27T03:12:07.020Z,97228.69
2023-04-27T03:15:09.182Z,97235.03
2023-04-27T03:18:11.365Z,97236.94
2023-04-27T03:21:13.427Z,97236.56
2023-04-27T03:24:15.618Z,97243.28
2023-04-27T03:27:17.653Z,97246.97
2023-04-27T03:30:19.315Z,97242.84
2023-04-27T03:33:21.189Z,97239.38
2023-04-27T03:36:22.703Z,97242.09
2023-04-27T03:39:24.272Z,97234.34
2023-04-27T03:42:25.795Z,97242.28
2023-04-27T03:45:27.642Z,97251.50
2023-04-27T03:48:29.184Z,97245.75
2023-04-27T03:51:34.213Z,97247.97
2023-04-27T03:54:36.326Z,97245.72
2023-04-27T03:57:37.880Z,97249.00
2023-04-27T04:00:39.748Z,97242.66
2023-04-27T04:03:41.470Z,97244.50
2023-04-27T04:06:43.592Z,97245.50
2023-04-27T04:09:46.395Z,97237.19
2023-04-27T04:12:47.866Z,97235.16
2023-04-27T04:15:49.473Z,97236.75
2023-04-27T04:18:51.288Z,97242.03
2023-04-27T04:21:54.521Z,97240.00
2023-04-27T04:24:56.012Z,97239.63
2023-04-27T04:27:57.987Z,97237.00
2023-04-27T04:31:01.460Z,97248.59
2023-04-27T04:34:03.578Z,97257.19
2023-04-27T04:37:05.439Z,97258.06
2023-04-27T04:40:09.761Z,97259.13
2023-04-27T04:43:12.200Z,97252.75
2023-04-27T04:46:13.677Z,97241.22
2023-04-27T04:49:15.589Z,97238.13
2023-04-27T04:52:17.296Z,97245.06
2023-04-27T04:55:19.638Z,97245.81
2023-04-27T04:58:21.321Z,97247.31
2023-04-27T05:01:23.224Z,97249.19
2023-04-27T05:04:24.895Z,97255.13
2023-04-27T05:07:26.812Z,97252.34
2023-04-27T05:10:28.416Z,97251.56
2023-04-27T05:13:30.022Z,97246.53
2023-04-27T05:16:31.658Z,97243.09
2023-04-27T05:19:33.217Z,97245.19
2023-04-27T05:22:34.737Z,97261.00
2023-04-27T05:25:41.745Z,97258.25
2023-04-27T05:28:43.757Z,97263.13
2023-04-27T05:31:45.350Z,97261.72
2023-04-27T05:34:49.323Z,97260.94
2023-04-27T05:37:51.084Z,97272.84
2023-04-27T05:40:58.760Z,97271.66
2023-04-27T05:44:00.282Z,97263.72
2023-04-27T05:47:01.876Z,97264.97
2023-04-27T05:50:03.872Z,97264.16
2023-04-27T05:53:05.658Z,97275.84
2023-04-27T05:56:07.537Z,97279.16
2023-04-27T05:59:09.678Z,97289.00
2023-04-27T06:02:11.312Z,97294.56
2023-04-27T06:05:14.241Z,97292.94
2023-04-27T06:08:15.678Z,97297.25
2023-04-27T06:11:17.974Z,97304.63
2023-04-27T06:14:19.396Z,97301.97
2023-04-27T06:17:21.803Z,97304.84
2023-04-27T06:20:23.452Z,97323.09
2023-04-27T06:23:25.018Z,97320.22
2023-04-27T06:26:26.890Z,97317.13
2023-04-27T06:29:28.354Z,97319.13
2023-04-27T06:32:30.072Z,97316.66
2023-04-27T06:35:32.000Z,97312.09
2023-04-27T06:38:33.498Z,97316.56
2023-04-27T06:41:34.981Z,97322.78
2023-04-27T06:44:36.601Z,97315.22
2023-04-27T06:47:38.071Z,97319.28
2023-04-27T06:50:39.872Z,97323.31
2023-04-27T06:53:41.475Z,97325.53
2023-04-27T06:56:43.303Z,97324.78
2023-04-27T06:59:45.384Z,97321.66
2023-04-27T07:02:46.962Z,97327.38
2023-04-27T07:05:48.551Z,97326.16
2023-04-27T07:08:50.049Z,97321.50
2023-04-27T07:11:51.531Z,97321.16
2023-04-27T07:14:53.017Z,97323.00
2023-04-27T07:17:54.594Z,97321.13
2023-04-27T07:20:58.041Z,97321.03
2023-04-27T07:23:59.587Z,97318.16
2023-04-27T07:27:02.632Z,97322.78
2023-04-27T07:30:06.654Z,97309.38
2023-04-27T07:33:08.822Z,97314.38
2023-04-27T07:36:10.377Z,97318.69
2023-04-27T07:39:12.623Z,97310.06
2023-04-27T07:42:15.309Z,97308.53
2023-04-27T07:45:19.480Z,97306.56
2023-04-27T07:48:21.666Z,97301.19
2023-04-27T07:51:23.186Z,97299.63
2023-04-27T07:54:24.750Z,97298.47
2023-04-27T07:57:26.263Z,97295.94
2023-04-27T08:00:27.820Z,97301.56
2023-04-27T08:03:29.473Z,97292.34
2023-04-27T08:06:31.410Z,97300.00
2023-04-27T08:09:33.041Z,97296.44
2023-04-27T08:12:34.883Z,97299.56
2023-04-27T08:15:37.252Z,97304.69
2023-04-27T08:18:38.726Z,97303.28
2023-04-27T08:21:40.510Z,97300.22
2023-04-27T08:24:42.039Z,97294.25
2023-04-27T08:27:43.515Z,97296.44
2023-04-27T08:30:45.007Z,97296.94
2023-04-27T08:33:46.958Z,97291.38
2023-04-27T08:36:48.409Z,97297.13
2023-04-27T08:39:49.950Z,97286.63
2023-04-27T08:42:57.033Z,97287.03
2023-04-27T08:45:58.521Z,97278.63
2023-04-27T08:49:00.006Z,97282.50
2023-04-27T08:52:02.192Z,97277.28
2023-04-27T08:55:04.813Z,97266.03
2023-04-27T08:58:06.257Z,97278.41
2023-04-27T09:01:08.422Z,97275.38
2023-04-27T09:04:11.820Z,97271.59
2023-04-27T09:07:18.211Z,97278.66
2023-04-27T09:10:19.712Z,97272.00
2023-04-27T09:13:21.757Z,97275.38
2023-04-27T09:16:25.100Z,97280.41
2023-04-27T09:19:28.545Z,97286.22
2023-04-27T09:22:30.019Z,97289.38
2023-04-27T09:25:32.999Z,97285.41
2023-04-27T09:28:38.277Z,97288.25
2023-04-27T09:31:39.788Z,97282.66
2023-04-27T09:34:41.396Z,97275.66
2023-04-27T09:37:43.786Z,97279.69
2023-04-27T09:40:45.553Z,97274.53
2023-04-27T09:43:47.457Z,97269.63
2023-04-27T09:46:49.949Z,97283.81
2023-04-27T09:49:52.053Z,97272.25
2023-04-27T09:52:53.544Z,97277.56
2023-04-27T09:56:22.939Z,97270.50
2023-04-27T09:59:44.481Z,97268.09
2023-04-27T10:02:58.393Z,97250.66
2023-04-27T10:06:20.858Z,97261.47
2023-04-27T10:09:23.675Z,97268.66
2023-04-27T10:12:39.182Z,97267.75
2023-04-27T10:15:40.797Z,97259.59
2023-04-27T10:18:52.782Z,97263.38
2023-04-27T10:21:56.966Z,97266.88
2023-04-27T10:24:58.596Z,97269.75
2023-04-27T10:28:02.622Z,97267.28
2023-04-27T10:31:11.073Z,97269.28
2023-04-27T10:34:19.147Z,97268.84
2023-04-27T10:37:25.661Z,97265.88
2023-04-27T10:40:34.152Z,97265.88
2023-04-27T10:43:35.840Z,97261.09
2023-04-27T10:46:49.832Z,97252.38
2023-04-27T10:49:57.016Z,97262.25
2023-04-27T10:53:04.758Z,97258.09
2023-04-27T10:56:07.058Z,97255.63
2023-04-27T10:59:08.981Z,97256.41
2023-04-27T11:02:12.244Z,97241.41
2023-04-27T11:05:22.424Z,97246.75
2023-04-27T11:08:24.282Z,97254.16
2023-04-27T11:11:26.354Z,97250.13
2023-04-27T11:14:28.878Z,97246.91
2023-04-27T11:17:30.875Z,97251.19
2023-04-27T11:20:32.483Z,97245.66
2023-04-27T11:23:38.453Z,97228.66
2023-04-27T11:26:39.991Z,97231.56
2023-04-27T11:29:42.456Z,97231.63
2023-04-27T11:32:44.121Z,97227.03
2023-04-27T11:35:46.081Z,97223.09
2023-04-27T11:38:47.665Z,97223.56
2023-04-27T11:41:49.200Z,97212.38
2023-04-27T11:44:54.625Z,97215.75
2023-04-27T11:47:59.026Z,97218.84
2023-04-27T11:51:01.347Z,97209.84
2023-04-27T11:54:07.259Z,97212.97
2023-04-27T11:57:10.063Z,97221.72
2023-04-27T12:00:14.258Z,97215.09
2023-04-27T12:03:17.213Z,97215.19
2023-04-27T12:06:32.614Z,97205.47
2023-04-27T12:09:35.020Z,97204.47
2023-04-27T12:12:36.637Z,97205.22
2023-04-27T12:15:39.031Z,97215.84
2023-04-27T12:18:40.530Z,97207.38
2023-04-27T12:21:42.705Z,97212.75
2023-04-27T12:27:47.971Z,97202.31
2023-04-27T12:30:49.690Z,97203.22
2023-04-27T12:33:51.862Z,97203.91
2023-04-27T12:36:53.357Z,97202.25
2023-04-27T12:39:55.169Z,97201.97
2023-04-27T12:42:57.923Z,97196.84
2023-04-27T12:46:00.578Z,97213.38
2023-04-27T12:49:02.184Z,97204.97
2023-04-27T12:52:03.773Z,97212.28
2023-04-27T12:55:06.333Z,97214.41
2023-04-27T12:58:07.912Z,97201.47
2023-04-27T13:01:14.711Z,97204.13
2023-04-27T13:04:20.792Z,97200.06
2023-04-27T13:07:23.039Z,97198.44
2023-04-27T13:10:24.631Z,97195.25
2023-04-27T13:13:26.227Z,97197.34
2023-04-27T13:16:27.688Z,97198.75
2023-04-27T13:19:29.192Z,97198.75
2023-04-27T13:22:30.725Z,97197.09
2023-04-27T13:25:32.297Z,97200.56
2023-04-27T13:28:33.827Z,97191.41
2023-04-27T13:31:35.707Z,97189.56
2023-04-27T13:34:37.191Z,97195.41
2023-04-27T13:37:40.058Z,97186.78
2023-04-27T13:40:41.734Z,97183.63
2023-04-27T13:43:43.675Z,97182.03
2023-04-27T13:46:45.330Z,97163.97
2023-04-27T13:49:46.809Z,97163.34
2023-04-27T13:52:48.276Z,97161.34
2023-04-27T13:55:49.742Z,97161.59
2023-04-27T13:58:51.399Z,97162.91
2023-04-27T14:01:53.077Z,97174.22
2023-04-27T14:04:55.075Z,97164.88
2023-04-27T14:07:56.595Z,97172.22
2023-04-27T14:10:58.231Z,97169.50
2023-04-27T14:13:59.680Z,97163.72
2023-04-27T14:17:01.365Z,97161.53
2023-04-27T14:20:04.409Z,97163.38
2023-04-27T14:23:06.887Z,97158.28
2023-04-27T14:26:09.167Z,97163.72
2023-04-27T14:29:11.561Z,97155.28
2023-04-27T14:32:13.461Z,97151.41
2023-04-27T14:35:15.071Z,97151.41
2023-04-27T14:38:16.532Z,97153.19
2023-04-27T14:41:18.085Z,97150.47
2023-04-27T14:44:19.566Z,97151.31
2023-04-27T14:47:21.144Z,97154.31
2023-04-27T14:50:22.685Z,97150.63
2023-04-27T14:53:25.401Z,97149.41
2023-04-27T14:56:27.569Z,97141.81
2023-04-27T14:59:29.544Z,97143.47
2023-04-27T15:02:33.841Z,97144.38
2023-04-27T15:05:35.703Z,97142.28
2023-04-27T15:08:37.185Z,97134.56
2023-04-27T15:11:38.896Z,97134.72
2023-04-27T15:14:40.607Z,97133.19
2023-04-27T15:17:42.113Z,97133.31
2023-04-27T15:20:44.647Z,97131.41
2023-04-27T15:23:46.211Z,97126.34
2023-04-27T15:26:48.469Z,97128.34
2023-04-27T15:29:49.918Z,97125.09
2023-04-27T15:32:51.489Z,97116.56
2023-04-27T15:35:53.033Z,97114.81
2023-04-27T15:38:54.739Z,97114.16
2023-04-27T15:41:58.287Z,97110.91
2023-04-27T15:45:00.704Z,97105.69
2023-04-27T15:48:02.281Z,97116.56
2023-04-27T15:51:07.563Z,97104.63
2023-04-27T15:54:11.342Z,97103.69
2023-04-27T15:57:12.875Z,97100.16
2023-04-27T16:00:16.611Z,97100.25
2023-04-27T16:03:18.211Z,97097.41
2023-04-27T16:06:19.761Z,97087.56
2023-04-27T16:09:23.252Z,97076.31
2023-04-27T16:12:24.691Z,97079.31
2023-04-27T16:15:26.983Z,97082.56
2023-04-27T16:18:28.653Z,97078.84
2023-04-27T16:21:30.144Z,97077.59
2023-04-27T16:24:31.729Z,97086.41
2023-04-27T16:27:39.564Z,97074.97
2023-04-27T16:30:41.371Z,97076.03
2023-04-27T16:33:42.881Z,97080.44
2023-04-27T16:36:44.568Z,97082.41
2023-04-27T16:39:46.521Z,97066.91
2023-04-27T16:42:48.032Z,97070.50
2023-04-27T16:45:49.691Z,97070.09
2023-04-27T16:48:51.359Z,97066.91
2023-04-27T16:51:54.399Z,97063.63
2023-04-27T16:54:55.871Z,97056.91
2023-04-27T16:57:57.404Z,97062.44
2023-04-27T17:00:58.970Z,97065.56
2023-04-27T17:04:03.512Z,97065.59
2023-04-27T17:07:06.308Z,97060.53
2023-04-27T17:10:09.170Z,97061.84
2023-04-27T17:13:12.275Z,97065.97
2023-04-27T17:16:16.076Z,97060.59
2023-04-27T17:19:17.621Z,97070.84
2023-04-27T17:22:19.338Z,97064.53
